createdAt,value
2018-11-03T00:00:02.037Z,96.6
2018-11-03T00:05:01.392Z,96.24
2018-11-03T00:10:01.766Z,96.24
2018-11-03T00:15:02.111Z,96.22
2018-11-03T00:20:01.435Z,96.31
2018-11-03T00:25:02.000Z,96.47
2018-11-03T00:30:01.830Z,96.95
2018-11-03T00:35:02.433Z,97.24
2018-11-03T00:40:01.215Z,97.06
2018-11-03T00:45:01.825Z,96.86
2018-11-03T00:50:01.644Z,96.83
2018-11-03T00:55:02.203Z,96.96
2018-11-03T01:00:01.994Z,96.86
2018-11-03T01:05:01.662Z,97.05
2018-11-03T01:10:01.473Z,97.3
2018-11-03T01:15:02.020Z,97.69
2018-11-03T01:20:01.749Z,98.31
2018-11-03T01:25:02.216Z,97.99
2018-11-03T01:30:02.003Z,97.18
2018-11-03T01:35:01.521Z,96.47
2018-11-03T01:40:02.198Z,98.05
2018-11-03T01:45:01.708Z,97.91
2018-11-03T01:50:01.509Z,97.76
2018-11-03T01:55:02.056Z,97.77
2018-11-03T02:00:01.570Z,97.82
2018-11-03T02:05:01.939Z,97.8
2018-11-03T02:10:01.432Z,97.73
2018-11-03T02:15:01.727Z,97.74
2018-11-03T02:20:02.072Z,97.48
2018-11-03T02:25:01.381Z,97.33
2018-11-03T02:30:01.739Z,97.18
2018-11-03T02:35:02.103Z,97.42
2018-11-03T02:40:01.410Z,97.31
2018-11-03T02:45:01.688Z,97.73
2018-11-03T02:50:02.003Z,98.18
2018-11-03T02:55:01.327Z,97.35
2018-11-03T03:00:01.642Z,97.97
2018-11-03T03:05:01.968Z,94.67
2018-11-03T03:10:01.287Z,98.11
2018-11-03T03:15:01.596Z,97.07
2018-11-03T03:20:01.925Z,94.9
2018-11-03T03:25:01.257Z,94.8
2018-11-03T03:30:01.479Z,98.26
2018-11-03T03:35:01.847Z,98.4
2018-11-03T03:40:01.468Z,98.17
2018-11-03T03:45:01.804Z,98.11
2018-11-03T03:50:02.137Z,97.98
2018-11-03T03:55:01.415Z,97.79
2018-11-03T04:00:01.933Z,97.34
2018-11-03T04:05:01.211Z,96.52
2018-11-03T04:10:01.536Z,96.57
2018-11-03T04:15:01.877Z,94.86
2018-11-03T04:20:02.132Z,98.39
2018-11-03T04:25:01.567Z,98.27
2018-11-03T04:30:02.174Z,98.04
2018-11-03T04:35:01.760Z,97.34
2018-11-03T04:40:01.643Z,96.17
2018-11-03T04:45:02.277Z,94.73
2018-11-03T04:50:02.026Z,98.29
2018-11-03T04:55:01.907Z,97.56
2018-11-03T05:00:02.177Z,96.75
2018-11-03T05:05:01.775Z,97.76
2018-11-03T05:10:02.133Z,97.97
2018-11-03T05:15:01.966Z,97.99
2018-11-03T05:20:01.843Z,98
2018-11-03T05:25:02.573Z,98.08
2018-11-03T05:30:01.207Z,97.95
2018-11-03T05:35:01.830Z,98.64
2018-11-03T05:40:01.854Z,98.08
2018-11-03T05:45:02.137Z,98.6
2018-11-03T05:50:01.430Z,98.4
2018-11-03T05:55:01.749Z,95.09
2018-11-03T06:00:02.035Z,94.96
2018-11-03T06:05:01.421Z,94.85
2018-11-03T06:10:01.717Z,95.08
2018-11-03T06:15:01.993Z,95.17
2018-11-03T06:20:01.330Z,98.51
2018-11-03T06:25:01.652Z,98.53
2018-11-03T06:30:01.987Z,98.31
2018-11-03T06:35:01.485Z,97.24
2018-11-03T06:40:01.902Z,98.04
2018-11-03T06:45:01.206Z,95.62
2018-11-03T06:50:01.520Z,98.14
2018-11-03T06:55:01.824Z,98.31
2018-11-03T07:00:02.165Z,95.63
2018-11-03T07:05:01.685Z,95.44
2018-11-03T07:10:01.247Z,97.12
2018-11-03T07:15:01.608Z,98.02
2018-11-03T07:20:01.966Z,98.31
2018-11-03T07:25:01.222Z,97.41
2018-11-03T07:30:01.526Z,98.86
2018-11-03T07:35:01.912Z,97.64
2018-11-03T07:40:01.639Z,98.53
2018-11-03T07:45:02.260Z,95.98
2018-11-03T07:50:02.059Z,99.01
2018-11-03T07:55:01.444Z,96.04
2018-11-03T08:00:01.783Z,98.47
2018-11-03T08:05:02.129Z,95.67
2018-11-03T08:10:01.423Z,98
2018-11-03T08:15:01.764Z,97.78
2018-11-03T08:20:02.067Z,97.82
2018-11-03T08:25:01.360Z,97.01
2018-11-03T08:30:01.679Z,97.43
2018-11-03T08:35:01.982Z,96.25
2018-11-03T08:40:01.316Z,95.71
2018-11-03T08:45:01.644Z,94.49
2018-11-03T08:50:01.924Z,94.73
2018-11-03T08:55:01.224Z,94.09
2018-11-03T09:00:01.752Z,93.1
2018-11-03T09:05:01.623Z,91.69
2018-11-03T09:10:01.573Z,92.75
2018-11-03T09:15:02.318Z,90.35
2018-11-03T09:20:01.199Z,90.77
2018-11-03T09:25:01.549Z,91.15
2018-11-03T09:30:01.351Z,90.32
2018-11-03T09:35:01.923Z,90.85
2018-11-03T09:40:01.379Z,90.45
2018-11-03T09:45:01.873Z,90.41
2018-11-03T09:50:01.496Z,89.84
2018-11-03T09:55:01.818Z,89.54
2018-11-03T10:00:02.081Z,88.85
2018-11-03T10:05:01.367Z,89.32
2018-11-03T10:10:01.649Z,88.69
2018-11-03T10:15:01.947Z,88.6
2018-11-03T10:20:01.237Z,88.09
2018-11-03T10:25:01.534Z,86.8
2018-11-03T10:30:01.824Z,83.79
2018-11-03T10:35:02.136Z,83.12
2018-11-03T10:40:01.426Z,83.47
2018-11-03T10:45:01.719Z,80.5
2018-11-03T10:50:01.965Z,79.13
2018-11-03T10:55:01.281Z,78.95
2018-11-03T11:00:01.611Z,77.93
2018-11-03T11:05:01.938Z,76.33
2018-11-03T11:10:01.246Z,75.42
2018-11-03T11:15:01.584Z,75.39
2018-11-03T11:20:01.942Z,73.38
2018-11-03T11:25:01.851Z,73.86
2018-11-03T11:30:01.546Z,74.6
2018-11-03T11:35:01.881Z,74.83
2018-11-03T11:40:01.201Z,76.89
2018-11-03T11:45:01.497Z,74.17
2018-11-03T11:50:01.924Z,73.91
2018-11-03T11:55:01.363Z,75.68
2018-11-03T12:00:01.872Z,74.25
2018-11-03T12:05:02.188Z,74.3
2018-11-03T12:10:01.863Z,73.71
2018-11-03T12:15:01.307Z,72.59
2018-11-03T12:20:01.616Z,72.43
2018-11-03T12:25:01.919Z,70.81
2018-11-03T12:30:01.290Z,71.73
2018-11-03T12:35:01.655Z,71.43
2018-11-03T12:40:01.985Z,69.73
2018-11-03T12:45:01.309Z,68.55
2018-11-03T12:50:01.651Z,69.02
2018-11-03T12:55:01.964Z,66.43
2018-11-03T13:00:01.278Z,62.54
2018-11-03T13:05:01.688Z,61.67
2018-11-03T13:10:02.275Z,61.76
2018-11-03T13:15:01.754Z,63.07
2018-11-03T13:20:02.028Z,62.55
2018-11-03T13:25:01.307Z,62.62
2018-11-03T13:30:01.619Z,63
2018-11-03T13:35:02.149Z,63.78
2018-11-03T13:40:01.856Z,64.32
2018-11-03T13:45:02.092Z,65.02
2018-11-03T13:50:01.353Z,64.55
2018-11-03T13:55:01.660Z,65.54
2018-11-03T14:00:01.924Z,65.8
2018-11-03T14:05:01.215Z,65.99
2018-11-03T14:10:01.477Z,69.41
2018-11-03T14:15:01.780Z,66.6
2018-11-03T14:20:02.076Z,66.5
2018-11-03T14:25:01.417Z,70.91
2018-11-03T14:30:01.756Z,71.05
2018-11-03T14:35:02.110Z,67.6
2018-11-03T14:40:01.416Z,66.63
2018-11-03T14:45:01.939Z,67.72
2018-11-03T14:50:01.374Z,67.24
2018-11-03T14:55:01.882Z,67.35
2018-11-03T15:00:01.198Z,66.93
2018-11-03T15:05:01.497Z,68.96
2018-11-03T15:10:01.762Z,69.57
2018-11-03T15:15:02.421Z,68.83
2018-11-03T15:20:01.988Z,74.04
2018-11-03T15:25:01.271Z,73.59
2018-11-03T15:30:01.572Z,74.14
2018-11-03T15:35:02.275Z,74.06
2018-11-03T15:40:01.729Z,75.52
2018-11-03T15:45:02.003Z,78.05
2018-11-03T15:50:01.272Z,79.74
2018-11-03T15:55:01.602Z,82.04
2018-11-03T16:00:01.879Z,83.25
2018-11-03T16:05:02.145Z,83.31
2018-11-03T16:10:01.418Z,83.94
2018-11-03T16:15:01.784Z,84.2
2018-11-03T16:20:02.041Z,84.75
2018-11-03T16:25:01.322Z,84.84
2018-11-03T16:30:01.619Z,84.85
2018-11-03T16:35:01.923Z,84.92
2018-11-03T16:40:01.202Z,85.93
2018-11-03T16:45:01.501Z,86.43
2018-11-03T16:50:01.786Z,86.66
2018-11-03T16:55:02.056Z,86.95
2018-11-03T17:00:01.332Z,86.85
2018-11-03T17:05:01.693Z,86.95
2018-11-03T17:10:01.988Z,86.82
2018-11-03T17:15:01.345Z,86.47
2018-11-03T17:20:01.664Z,86.3
2018-11-03T17:25:02.083Z,86.49
2018-11-03T17:30:01.530Z,86.82
2018-11-03T17:35:01.852Z,87.05
2018-11-03T17:40:02.113Z,87.43
2018-11-03T17:45:01.388Z,87.73
2018-11-03T17:50:01.843Z,87.83
2018-11-03T17:55:02.098Z,87.78
2018-11-03T18:00:01.767Z,88.09
2018-11-03T18:05:01.381Z,88.2
2018-11-03T18:10:01.776Z,88.26
2018-11-03T18:15:02.023Z,88.17
2018-11-03T18:20:01.307Z,87.91
2018-11-03T18:25:01.600Z,87.92
2018-11-03T18:30:01.936Z,87.95
2018-11-03T18:35:01.258Z,88.61
2018-11-03T18:40:01.574Z,88.62
2018-11-03T18:45:01.953Z,88.75
2018-11-03T18:50:01.264Z,89.07
2018-11-03T18:55:01.570Z,89.03
2018-11-03T19:00:01.851Z,89.15
2018-11-03T19:05:02.172Z,89.49
2018-11-03T19:10:01.419Z,89.62
2018-11-03T19:15:01.697Z,89.92
2018-11-03T19:20:01.975Z,90.06
2018-11-03T19:25:01.278Z,90.53
2018-11-03T19:30:01.660Z,90.92
2018-11-03T19:35:02.016Z,91.03
2018-11-03T19:40:01.275Z,91.06
2018-11-03T19:45:01.591Z,91.16
2018-11-03T19:50:01.873Z,91.39
2018-11-03T19:55:02.133Z,91.71
2018-11-03T20:00:01.408Z,92.46
2018-11-03T20:05:01.721Z,92.65
2018-11-03T20:10:02.239Z,93.35
2018-11-03T20:15:01.771Z,93.47
2018-11-03T20:20:02.042Z,93.25
2018-11-03T20:25:01.359Z,93.51
2018-11-03T20:30:01.655Z,94.32
2018-11-03T20:35:01.956Z,94.96
2018-11-03T20:40:01.261Z,95.31
2018-11-03T20:45:01.545Z,96.3
2018-11-03T20:50:01.876Z,96
2018-11-03T20:55:02.177Z,95.46
2018-11-03T21:00:01.420Z,95.12
2018-11-03T21:05:01.729Z,94.73
2018-11-03T21:10:01.982Z,94.4
2018-11-03T21:15:01.610Z,93.77
2018-11-03T21:20:01.905Z,93.24
2018-11-03T21:25:02.138Z,92.91
2018-11-03T21:30:01.480Z,92.64
2018-11-03T21:35:01.986Z,92.76
2018-11-03T21:40:01.257Z,93.05
2018-11-03T21:45:01.568Z,93.12
2018-11-03T21:50:01.910Z,93.51
2018-11-03T21:55:01.291Z,93.86
2018-11-03T22:00:01.575Z,93.86
2018-11-03T22:05:01.900Z,94.24
2018-11-03T22:10:02.155Z,94.92
2018-11-03T22:15:01.435Z,96.27
2018-11-03T22:20:01.744Z,96.74
2018-11-03T22:25:02.011Z,96.81
2018-11-03T22:30:01.298Z,96.6
2018-11-03T22:35:01.570Z,96.42
2018-11-03T22:40:01.880Z,96.59
2018-11-03T22:45:02.142Z,97.26
2018-11-03T22:50:01.410Z,98.15
2018-11-03T22:55:01.735Z,97.69
2018-11-03T23:00:02.006Z,94.71
2018-11-03T23:05:01.365Z,97.66
2018-11-03T23:10:01.649Z,97.9
2018-11-03T23:15:01.923Z,98.05
2018-11-03T23:20:01.215Z,98.16
2018-11-03T23:25:01.546Z,97.89
2018-11-03T23:30:02.433Z,97.5
2018-11-03T23:35:01.381Z,97.57
2018-11-03T23:40:01.666Z,97.82
2018-11-03T23:45:01.974Z,98.06
2018-11-03T23:50:01.262Z,98.21
2018-11-03T23:55:01.535Z,98.23
